createdAt,value
2022-12-26T00:01:24.360Z,79.49
2022-12-26T00:06:28.418Z,78.98
2022-12-26T00:11:30.061Z,79.02
2022-12-26T00:16:31.859Z,80.34
2022-12-26T00:21:33.830Z,79.35
2022-12-26T00:26:36.277Z,79.69
2022-12-26T00:31:38.143Z,79.78
2022-12-26T00:36:39.865Z,79.87
2022-12-26T00:41:41.478Z,80.60
2022-12-26T00:46:43.150Z,80.63
2022-12-26T00:51:45.650Z,80.43
2022-12-26T00:56:47.303Z,80.22
2022-12-26T01:01:49.182Z,79.69
2022-12-26T01:06:51.041Z,79.60
2022-12-26T01:11:52.633Z,79.70
2022-12-26T01:16:54.283Z,80.16
2022-12-26T01:21:55.906Z,79.54
2022-12-26T01:26:57.518Z,80.01
2022-12-26T01:31:59.226Z,79.75
2022-12-26T01:37:00.907Z,79.31
2022-12-26T01:42:02.515Z,79.02
2022-12-26T01:47:04.244Z,79.59
2022-12-26T01:52:12.320Z,78.70
2022-12-26T01:57:20.682Z,78.23
2022-12-26T02:02:23.332Z,77.10
2022-12-26T02:07:26.586Z,77.26
2022-12-26T02:12:38.689Z,77.33
2022-12-26T02:17:42.577Z,77.21
2022-12-26T02:23:05.401Z,78.49
2022-12-26T02:28:29.763Z,78.27
2022-12-26T02:34:05.643Z,79.01
2022-12-26T02:39:44.932Z,78.26
2022-12-26T02:45:13.817Z,78.42
2022-12-26T02:51:03.485Z,76.58
2022-12-26T02:56:37.000Z,77.52
2022-12-26T03:02:02.566Z,76.96
2022-12-26T03:07:31.263Z,77.41
2022-12-26T03:12:59.619Z,78.04
2022-12-26T03:18:06.507Z,78.73
2022-12-26T03:23:12.738Z,79.33
2022-12-26T03:28:15.154Z,79.09
2022-12-26T03:33:42.387Z,78.48
2022-12-26T03:38:57.748Z,78.21
2022-12-26T03:44:30.443Z,77.94
2022-12-26T03:49:55.707Z,78.23
2022-12-26T03:55:25.708Z,78.61
2022-12-26T04:00:49.959Z,78.39
2022-12-26T04:06:12.183Z,78.44
2022-12-26T04:11:36.041Z,78.60
2022-12-26T04:17:01.376Z,78.47
2022-12-26T04:22:49.566Z,79.84
2022-12-26T04:28:09.824Z,78.63
2022-12-26T04:33:38.027Z,78.58
2022-12-26T04:39:06.500Z,78.35
2022-12-26T04:44:09.977Z,77.62
2022-12-26T04:49:32.471Z,77.79
2022-12-26T04:54:34.173Z,78.30
2022-12-26T04:59:35.859Z,78.51
2022-12-26T05:04:56.130Z,77.94
2022-12-26T05:09:57.766Z,78.85
2022-12-26T05:14:59.376Z,77.74
2022-12-26T05:20:20.866Z,77.68
2022-12-26T05:25:48.212Z,77.47
2022-12-26T05:30:49.933Z,77.28
2022-12-26T05:35:51.593Z,78.30
2022-12-26T05:40:53.211Z,77.79
2022-12-26T05:45:54.944Z,78.35
2022-12-26T05:51:03.860Z,78.26
2022-12-26T05:56:13.861Z,78.03
2022-12-26T06:01:18.583Z,78.23
2022-12-26T06:06:21.624Z,78.75
2022-12-26T06:11:26.628Z,78.39
2022-12-26T06:16:28.554Z,79.56
2022-12-26T06:21:30.266Z,79.19
2022-12-26T06:26:31.914Z,79.30
2022-12-26T06:31:33.703Z,79.56
2022-12-26T06:36:35.362Z,79.75
2022-12-26T06:41:37.037Z,79.30
2022-12-26T06:46:38.714Z,79.54
2022-12-26T06:51:41.094Z,79.89
2022-12-26T06:56:42.771Z,79.76
2022-12-26T07:01:44.528Z,79.35
2022-12-26T07:06:46.265Z,78.79
2022-12-26T07:11:50.625Z,79.63
2022-12-26T07:16:52.326Z,79.05
2022-12-26T07:21:54.103Z,79.91
2022-12-26T07:26:55.735Z,80.14
2022-12-26T07:31:58.289Z,79.62
2022-12-26T07:37:00.000Z,80.19
2022-12-26T07:42:01.767Z,80.26
2022-12-26T07:47:03.383Z,80.10
2022-12-26T07:52:05.260Z,79.59
2022-12-26T07:57:46.319Z,79.71
2022-12-26T08:02:28.708Z,80.61
2022-12-26T08:07:30.457Z,80.08
2022-12-26T08:12:34.316Z,79.25
2022-12-26T08:17:35.949Z,78.71
2022-12-26T08:22:37.573Z,78.24
2022-12-26T08:27:39.493Z,76.47
2022-12-26T08:32:44.235Z,75.08
2022-12-26T08:37:48.022Z,75.29
2022-12-26T08:43:11.843Z,75.39
2022-12-26T08:48:11.237Z,75.16
2022-12-26T08:53:12.864Z,75.14
2022-12-26T08:58:14.512Z,74.71
2022-12-26T09:03:16.295Z,74.95
2022-12-26T09:08:17.933Z,74.09
2022-12-26T09:13:20.329Z,74.16
2022-12-26T09:18:21.961Z,74.24
2022-12-26T09:23:23.583Z,73.87
2022-12-26T09:28:25.211Z,73.39
2022-12-26T09:33:26.876Z,72.44
2022-12-26T09:38:28.512Z,72.13
2022-12-26T09:43:58.917Z,71.91
2022-12-26T09:49:16.462Z,71.41
2022-12-26T09:55:00.362Z,71.60
2022-12-26T10:00:05.450Z,72.67
2022-12-26T10:05:14.562Z,73.29
2022-12-26T10:10:58.410Z,73.30
2022-12-26T10:16:08.808Z,73.61
2022-12-26T10:21:13.080Z,75.16
2022-12-26T10:26:25.218Z,76.49
2022-12-26T10:31:42.395Z,76.88
2022-12-26T10:36:51.772Z,76.67
2022-12-26T10:41:58.542Z,77.01
2022-12-26T10:47:12.326Z,76.97
2022-12-26T10:52:15.906Z,76.32
2022-12-26T10:57:17.920Z,76.16
2022-12-26T11:02:31.050Z,76.18
2022-12-26T11:07:36.888Z,75.62
2022-12-26T11:12:54.434Z,74.74
2022-12-26T11:18:17.090Z,73.40
2022-12-26T11:23:33.676Z,73.03
2022-12-26T11:28:37.402Z,72.16
2022-12-26T11:33:45.080Z,72.09
2022-12-26T11:38:53.475Z,72.40
2022-12-26T11:43:59.126Z,73.20
2022-12-26T11:49:01.714Z,73.49
2022-12-26T11:54:19.044Z,73.98
2022-12-26T11:59:23.735Z,74.48
2022-12-26T12:04:25.350Z,74.64
2022-12-26T12:09:56.662Z,75.27
2022-12-26T12:15:27.404Z,75.42
2022-12-26T12:20:41.297Z,75.96
2022-12-26T12:26:04.288Z,76.54
2022-12-26T12:31:05.862Z,77.61
2022-12-26T12:36:16.986Z,76.70
2022-12-26T12:41:27.464Z,77.11
2022-12-26T12:46:50.133Z,77.24
2022-12-26T12:52:25.407Z,77.14
2022-12-26T12:57:48.159Z,77.76
2022-12-26T13:03:22.772Z,77.94
2022-12-26T13:08:32.493Z,79.82
2022-12-26T13:13:40.534Z,86.10
2022-12-26T13:18:56.846Z,98.35
2022-12-26T13:24:24.287Z,100.00
2022-12-26T13:29:40.333Z,100.00
2022-12-26T13:34:44.983Z,100.00
2022-12-26T13:39:46.736Z,100.00
2022-12-26T13:44:53.451Z,97.08
2022-12-26T13:49:55.476Z,97.46
2022-12-26T13:54:57.439Z,95.79
2022-12-26T13:59:59.028Z,95.98
2022-12-26T14:05:27.905Z,96.88
2022-12-26T14:11:11.075Z,96.21
2022-12-26T14:16:23.584Z,96.23
2022-12-26T14:21:25.215Z,92.08
2022-12-26T14:26:44.038Z,90.14
2022-12-26T14:32:04.240Z,87.80
2022-12-26T14:37:48.438Z,86.97
2022-12-26T14:43:23.601Z,86.51
2022-12-26T14:48:28.070Z,87.03
2022-12-26T14:53:34.679Z,86.70
2022-12-26T14:58:39.415Z,86.18
2022-12-26T15:03:44.840Z,85.75
2022-12-26T15:09:23.513Z,86.35
2022-12-26T15:14:40.891Z,86.94
2022-12-26T15:20:10.172Z,86.95
2022-12-26T15:25:29.816Z,86.50
2022-12-26T15:30:40.179Z,87.19
2022-12-26T15:36:01.129Z,88.51
2022-12-26T15:41:24.513Z,89.34
2022-12-26T15:46:31.214Z,90.16
2022-12-26T15:51:45.064Z,90.67
2022-12-26T15:57:06.613Z,91.73
2022-12-26T16:02:33.096Z,91.12
2022-12-26T16:07:41.019Z,91.71
2022-12-26T16:13:01.309Z,93.91
2022-12-26T16:18:17.047Z,92.79
2022-12-26T16:23:22.318Z,92.87
2022-12-26T16:28:29.634Z,92.43
2022-12-26T16:33:42.505Z,92.57
2022-12-26T16:38:44.630Z,91.19
2022-12-26T16:43:46.577Z,91.56
2022-12-26T16:48:56.177Z,92.30
2022-12-26T16:54:15.104Z,92.14
2022-12-26T16:59:21.150Z,92.16
2022-12-26T17:04:28.945Z,91.62
2022-12-26T17:09:38.400Z,91.99
2022-12-26T17:14:43.351Z,92.48
2022-12-26T17:19:47.792Z,91.67
2022-12-26T17:25:21.665Z,89.79
2022-12-26T17:30:31.779Z,87.96
2022-12-26T17:36:13.489Z,86.34
2022-12-26T17:41:00.763Z,86.47
2022-12-26T17:46:03.246Z,85.45
2022-12-26T17:51:07.587Z,85.28
2022-12-26T17:56:17.656Z,84.37
2022-12-26T18:01:21.757Z,85.03
2022-12-26T18:06:24.375Z,84.94
2022-12-26T18:11:26.043Z,83.99
2022-12-26T18:16:29.653Z,84.26
2022-12-26T18:21:31.307Z,84.41
2022-12-26T18:26:33.121Z,85.21
2022-12-26T18:31:34.820Z,85.66
2022-12-26T18:36:38.742Z,85.29
2022-12-26T18:41:40.674Z,85.65
2022-12-26T18:46:42.291Z,86.06
2022-12-26T18:51:43.952Z,87.62
2022-12-26T18:56:45.576Z,89.18
2022-12-26T19:01:47.289Z,91.64
2022-12-26T19:06:49.091Z,90.50
2022-12-26T19:11:51.057Z,90.98
2022-12-26T19:16:52.661Z,89.15
2022-12-26T19:21:54.258Z,88.61
2022-12-26T19:26:55.869Z,88.18
2022-12-26T19:31:57.641Z,87.64
2022-12-26T19:36:59.378Z,87.18
2022-12-26T19:42:01.024Z,87.33
2022-12-26T19:47:11.127Z,87.28
2022-12-26T19:52:14.428Z,87.07
2022-12-26T19:57:16.047Z,87.04
2022-12-26T20:02:18.207Z,86.10
2022-12-26T20:07:20.046Z,85.94
2022-12-26T20:12:21.739Z,85.11
2022-12-26T20:17:23.484Z,84.96
2022-12-26T20:22:25.159Z,86.57
2022-12-26T20:27:27.563Z,92.00
2022-12-26T20:32:29.189Z,97.17
2022-12-26T20:37:32.213Z,98.27
2022-12-26T20:42:33.843Z,100.00
2022-12-26T20:47:35.466Z,100.00
2022-12-26T20:52:37.128Z,100.00
2022-12-26T20:57:38.804Z,100.00
2022-12-26T21:02:40.508Z,100.00
2022-12-26T21:07:42.235Z,100.00
2022-12-26T21:12:43.857Z,100.00
2022-12-26T21:17:45.486Z,100.00
2022-12-26T21:22:47.099Z,100.00
2022-12-26T21:27:50.007Z,100.00
2022-12-26T21:32:52.069Z,100.00
2022-12-26T21:37:53.708Z,100.00
2022-12-26T21:42:55.383Z,100.00
2022-12-26T21:47:56.993Z,100.00
2022-12-26T21:52:58.674Z,100.00
2022-12-26T21:58:00.873Z,100.00
2022-12-26T22:03:21.658Z,100.00
2022-12-26T22:08:23.404Z,100.00
2022-12-26T22:13:26.796Z,100.00
2022-12-26T22:18:49.930Z,100.00
2022-12-26T22:23:52.847Z,100.00
2022-12-26T22:28:56.099Z,100.00
2022-12-26T22:34:02.352Z,100.00
2022-12-26T22:39:04.224Z,100.00
2022-12-26T22:44:05.929Z,100.00
2022-12-26T22:49:07.576Z,100.00
2022-12-26T22:54:09.203Z,100.00
2022-12-26T22:59:13.672Z,100.00
2022-12-26T23:04:24.392Z,100.00
2022-12-26T23:09:26.366Z,100.00
2022-12-26T23:14:28.062Z,100.00
2022-12-26T23:19:53.313Z,100.00
2022-12-26T23:24:54.923Z,98.86
2022-12-26T23:30:15.055Z,99.10
2022-12-26T23:35:18.612Z,100.00
2022-12-26T23:40:21.340Z,100.00
2022-12-26T23:45:23.080Z,100.00
2022-12-26T23:50:24.695Z,100.00
2022-12-26T23:55:26.332Z,100.00
